Terminal Aerodrome Forecast
Issued by NWS Grand Rapids, MI

Home | Current Version | Previous Version | Text Only | Print | Product List | Glossary On
Versions: 1 2 3 4 5 6 7 8 9 10 11 12 13 14 15 16 17
138
FTUS43 KGRR 232340
TAFGRR
TAF
KGRR 232340Z 2400/2424 02004KT P6SM VCSH OVC050
     FM241200 06008KT P6SM -SHRA OVC035
     FM241800 07008KT 4SM -RA BR OVC035=

USA.gov is the U.S. government's official web portal to all federal, state and local government web resources and services.